Time;durP1;ratioP1;P1;durP2;ratioP2;P2;SDS_P1;SDS_P2;PMS_P1;PMS_P2;Temp;Humidity;BMP_temperature;BMP_pressure;BME280_temperature;BME280_humidity;BME280_pressure;Samples;Min_cycle;Max_cycle;Signal;HPM_P1;HPM_P2
2023/07/23 00:00:27;;;;;;;3.80;2.67;;;20.20;83.00;;;;;;5011229;28;20050;-33
2023/07/23 00:02:54;;;;;;;3.72;2.55;;;;;;;;;;5011161;28;20124;-34
2023/07/23 00:05:21;;;;;;;4.20;2.50;;;20.70;68.00;;;;;;5011078;28;20134;-31
2023/07/23 00:07:48;;;;;;;2.95;2.38;;;19.90;82.20;;;;;;5011132;28;20046;-31
2023/07/23 00:10:15;;;;;;;4.20;2.90;;;19.80;74.20;;;;;;5011238;28;20128;-31
2023/07/23 00:12:43;;;;;;;3.35;2.28;;;19.70;82.60;;;;;;5010846;28;20056;-32
2023/07/23 00:15:11;;;;;;;3.80;2.80;;;19.70;82.20;;;;;;5011053;28;20187;-31
2023/07/23 00:17:39;;;;;;;3.03;2.55;;;20.80;83.20;;;;;;5010542;28;20510;-31
2023/07/23 00:20:07;;;;;;;3.30;2.40;;;20.10;82.20;;;;;;5011031;28;20422;-31
2023/07/23 00:22:34;;;;;;;2.70;2.30;;;;;;;;;;5010390;28;20478;-36
2023/07/23 00:25:01;;;;;;;2.88;2.58;;;20.20;82.90;;;;;;5010980;28;20506;-31
2023/07/23 00:27:27;;;;;;;3.40;2.45;;;20.40;82.30;;;;;;5010753;28;20049;-32
2023/07/23 00:29:56;;;;;;;3.17;2.50;;;20.20;65.70;;;;;;5010940;28;20056;-36
2023/07/23 00:32:23;;;;;;;3.58;2.40;;;20.20;82.10;;;;;;5022360;28;20038;-31
2023/07/23 00:34:50;;;;;;;3.10;2.45;;;21.00;82.60;;;;;;5030388;28;20132;-31
2023/07/23 00:37:17;;;;;;;2.85;2.38;;;;;;;;;;5029020;28;20056;-35
2023/07/23 00:39:43;;;;;;;2.70;2.25;;;19.90;81.80;;;;;;5030087;28;20569;-37
2023/07/23 00:42:11;;;;;;;2.95;2.33;;;;;;;;;;5030107;28;20125;-31
2023/07/23 00:44:38;;;;;;;2.75;2.30;;;20.00;82.00;;;;;;5029901;28;20505;-39
2023/07/23 00:47:06;;;;;;;2.88;2.20;;;20.20;65.70;;;;;;5030134;28;20127;-35
2023/07/23 00:49:33;;;;;;;2.85;2.22;;;;;;;;;;5030419;28;20060;-38
2023/07/23 00:52:00;;;;;;;3.88;2.58;;;19.90;82.30;;;;;;5030395;28;20053;-35
2023/07/23 00:54:27;;;;;;;2.80;2.40;;;19.80;82.70;;;;;;5029463;28;20124;-37
2023/07/23 00:56:53;;;;;;;2.72;2.33;;;19.90;72.40;;;;;;5029997;28;20060;-38
2023/07/23 00:59:20;;;;;;;3.70;2.25;;;20.00;81.80;;;;;;5029952;28;20136;-37
2023/07/23 01:01:48;;;;;;;3.42;2.35;;;20.50;82.00;;;;;;5030001;28;20088;-40
2023/07/23 01:04:16;;;;;;;2.60;2.38;;;20.20;65.60;;;;;;5029994;28;20106;-40
2023/07/23 01:06:45;;;;;;;3.55;2.20;;;;;;;;;;5029937;28;20045;-38
2023/07/23 01:09:12;;;;;;;2.72;2.30;;;;;;;;;;5030038;28;20045;-35
2023/07/23 01:11:39;;;;;;;3.08;2.20;;;;;;;;;;5025075;28;20053;-39
2023/07/23 01:14:06;;;;;;;4.00;2.50;;;;;;;;;;5009922;28;20089;-37
2023/07/23 01:16:33;;;;;;;3.08;2.20;;;19.60;81.60;;;;;;5009565;28;20132;-39
2023/07/23 01:18:59;;;;;;;3.63;2.65;;;20.40;82.90;;;;;;5010320;28;20133;-39
2023/07/23 01:21:28;;;;;;;3.60;2.50;;;19.90;73.00;;;;;;5010077;28;20060;-36
2023/07/23 01:23:56;;;;;;;3.72;2.42;;;20.00;82.70;;;;;;5009930;28;20391;-40
2023/07/23 01:26:23;;;;;;;2.70;2.15;;;20.10;82.50;;;;;;5010147;28;20137;-39
2023/07/23 01:28:49;;;;;;;2.53;2.20;;;19.70;82.40;;;;;;5029172;28;20057;-38
2023/07/23 01:31:16;;;;;;;2.97;2.30;;;;;;;;;;5029542;28;20133;-34
2023/07/23 01:33:43;;;;;;;2.95;2.40;;;19.70;81.90;;;;;;5029361;28;20050;-37
2023/07/23 01:36:10;;;;;;;3.28;2.50;;;20.30;81.90;;;;;;5029145;28;20133;-37
2023/07/23 01:38:37;;;;;;;3.33;2.35;;;20.10;80.30;;;;;;5029294;28;20056;-38
2023/07/23 01:41:05;;;;;;;2.72;2.25;;;20.40;82.00;;;;;;5027447;28;20128;-38
2023/07/23 01:43:32;;;;;;;4.28;2.35;;;;;;;;;;5009195;28;20046;-39
2023/07/23 01:45:59;;;;;;;2.92;2.33;;;;;;;;;;5009877;28;20056;-37
2023/07/23 01:48:26;;;;;;;3.90;2.35;;;20.10;82.40;;;;;;5009639;28;20065;-40
2023/07/23 01:50:53;;;;;;;3.53;2.38;;;;;;;;;;5009818;28;20508;-37
2023/07/23 01:53:19;;;;;;;2.90;2.20;;;20.00;82.50;;;;;;5009175;28;20049;-39
2023/07/23 01:55:46;;;;;;;3.25;2.30;;;20.40;82.00;;;;;;5010655;28;20158;-39
2023/07/23 01:58:14;;;;;;;3.33;2.30;;;20.10;65.40;;;;;;5009358;28;20053;-37
2023/07/23 02:00:41;;;;;;;3.20;2.58;;;;;;;;;;5009524;28;20125;-37
2023/07/23 02:03:08;;;;;;;3.10;2.40;;;20.20;82.80;;;;;;5009100;28;20133;-35
2023/07/23 02:05:38;;;;;;;3.60;2.17;;;19.20;64.90;;;;;;5009269;28;20054;-39
2023/07/23 02:08:05;;;;;;;2.67;2.10;;;20.50;82.90;;;;;;5009285;28;20128;-38
2023/07/23 02:10:32;;;;;;;5.53;2.55;;;;;;;;;;5009228;28;20125;-36
2023/07/23 02:12:58;;;;;;;2.92;2.33;;;19.70;77.60;;;;;;5008731;28;20049;-40
2023/07/23 02:15:26;;;;;;;2.95;2.30;;;20.10;82.00;;;;;;5009301;28;20488;-37
2023/07/23 02:17:53;;;;;;;3.72;2.38;;;20.50;82.20;;;;;;5009106;28;20089;-37
2023/07/23 02:20:20;;;;;;;3.28;2.40;;;20.10;70.20;;;;;;5009347;28;20050;-35
2023/07/23 02:22:48;;;;;;;3.15;2.50;;;20.10;81.80;;;;;;5008822;28;20129;-40
2023/07/23 02:25:15;;;;;;;3.25;2.42;;;19.60;82.30;;;;;;5025172;28;20054;-37
2023/07/23 02:27:42;;;;;;;3.95;2.70;;;;;;;;;;5028780;28;20128;-38
2023/07/23 02:30:09;;;;;;;3.40;2.40;;;20.70;67.70;;;;;;5013919;28;20060;-38
2023/07/23 02:32:37;;;;;;;3.20;2.47;;;20.10;65.40;;;;;;5028624;28;20128;-37
2023/07/23 02:35:05;;;;;;;3.03;2.42;;;20.00;65.30;;;;;;5028541;28;20125;-36
2023/07/23 02:37:31;;;;;;;3.15;2.30;;;20.00;80.70;;;;;;5027916;28;20128;-40
2023/07/23 02:39:58;;;;;;;3.35;2.20;;;;;;;;;;5027073;28;20474;-35
2023/07/23 02:42:25;;;;;;;3.17;2.20;;;20.60;82.30;;;;;;5028790;28;20429;-38
2023/07/23 02:44:52;;;;;;;3.53;2.53;;;19.70;81.60;;;;;;5028476;28;20132;-40
2023/07/23 02:47:19;;;;;;;3.38;2.40;;;;;;;;;;5028013;28;20491;-36
2023/07/23 02:49:47;;;;;;;2.95;2.17;;;20.90;82.80;;;;;;5028371;28;20566;-37
2023/07/23 02:52:14;;;;;;;2.85;2.30;;;20.40;82.30;;;;;;5028292;28;20136;-36
2023/07/23 02:54:42;;;;;;;3.55;2.42;;;19.50;82.40;;;;;;5029121;28;20659;-40
2023/07/23 02:57:08;;;;;;;2.95;2.20;;;20.10;82.70;;;;;;5031972;28;20045;-40
2023/07/23 02:59:35;;;;;;;2.85;2.20;;;20.30;69.10;;;;;;5031871;28;20148;-36
2023/07/23 03:02:02;;;;;;;5.05;2.60;;;21.10;71.20;;;;;;5030417;28;20133;-36
2023/07/23 03:04:29;;;;;;;3.47;2.22;;;20.10;82.40;;;;;;5011029;28;20049;-37
2023/07/23 03:06:57;;;;;;;3.10;2.30;;;20.60;79.90;;;;;;5011787;28;20050;-36
2023/07/23 03:09:23;;;;;;;3.00;2.40;;;20.50;77.20;;;;;;5012188;28;20050;-38
2023/07/23 03:11:50;;;;;;;3.40;2.58;;;19.40;81.10;;;;;;5011800;28;20541;-40
2023/07/23 03:14:17;;;;;;;2.75;2.00;;;20.00;82.30;;;;;;5011427;28;20128;-40
2023/07/23 03:16:44;;;;;;;3.35;2.10;;;20.40;73.80;;;;;;5011741;28;20550;-34
2023/07/23 03:19:11;;;;;;;2.83;2.10;;;19.90;81.90;;;;;;5011854;28;20049;-39
2023/07/23 03:21:38;;;;;;;3.08;1.95;;;;;;;;;;5029319;28;20452;-37
2023/07/23 03:24:07;;;;;;;2.47;2.17;;;20.00;65.30;;;;;;5031275;28;20150;-36
2023/07/23 03:26:34;;;;;;;3.20;2.30;;;;;;;;;;5031674;28;20054;-36
2023/07/23 03:29:01;;;;;;;2.95;2.20;;;;;;;;;;5030549;28;20145;-39
2023/07/23 03:31:28;;;;;;;2.88;2.20;;;20.50;67.60;;;;;;5031434;28;20132;-36
2023/07/23 03:33:55;;;;;;;2.90;2.17;;;19.70;73.30;;;;;;5021735;28;20512;-40
2023/07/23 03:36:21;;;;;;;2.90;2.20;;;20.00;82.30;;;;;;5015347;28;20128;-38
2023/07/23 03:38:50;;;;;;;4.13;2.50;;;;;;;;;;5031270;28;20057;-36
2023/07/23 03:41:18;;;;;;;2.70;2.20;;;20.00;65.20;;;;;;5031198;28;20474;-37
2023/07/23 03:43:45;;;;;;;3.17;2.40;;;;;;;;;;5030519;28;20132;-37
2023/07/23 03:46:11;;;;;;;3.25;2.35;;;20.20;81.90;;;;;;5031152;28;20132;-38
2023/07/23 03:48:39;;;;;;;3.03;2.17;;;;;;;;;;5031090;28;20053;-34
2023/07/23 03:51:05;;;;;;;2.60;2.08;;;20.30;81.90;;;;;;5031018;28;20050;-39
2023/07/23 03:53:32;;;;;;;3.28;2.22;;;19.70;80.20;;;;;;5030845;28;20599;-39
2023/07/23 03:55:59;;;;;;;2.72;2.20;;;19.50;67.20;;;;;;5031046;28;20137;-37
2023/07/23 03:58:26;;;;;;;3.13;2.30;;;20.20;81.90;;;;;;5030798;28;20553;-39
2023/07/23 04:00:53;;;;;;;3.25;2.30;;;;;;;;;;5026803;28;20430;-34
2023/07/23 04:03:19;;;;;;;2.80;2.20;;;21.10;82.30;;;;;;5010830;28;20439;-40
2023/07/23 04:05:46;;;;;;;2.72;2.13;;;19.70;81.50;;;;;;5010312;28;20132;-40
2023/07/23 04:08:13;;;;;;;3.45;2.10;;;;;;;;;;5010559;28;20589;-36
2023/07/23 04:10:40;;;;;;;3.03;2.20;;;19.80;81.70;;;;;;5011145;28;20057;-38
2023/07/23 04:13:07;;;;;;;4.00;2.28;;;20.40;82.80;;;;;;5010744;28;20057;-37
2023/07/23 04:15:38;;;;;;;2.55;2.00;;;20.20;78.60;;;;;;5010997;28;20081;-37
2023/07/23 04:18:12;;;;;;;3.05;2.13;;;20.00;65.20;;;;;;5028917;28;20158;-40
2023/07/23 04:20:39;;;;;;;3.28;2.30;;;;;;;;;;5030600;28;20045;-37
2023/07/23 04:23:06;;;;;;;2.83;2.08;;;20.40;82.40;;;;;;5029992;28;20133;-40
2023/07/23 04:25:33;;;;;;;2.75;2.05;;;19.90;82.10;;;;;;5030620;28;20124;-37
2023/07/23 04:28:00;;;;;;;2.78;2.42;;;;;;;;;;5030273;28;20049;-34
2023/07/23 04:30:27;;;;;;;3.25;2.25;;;20.10;82.60;;;;;;5030409;28;20487;-36
2023/07/23 04:32:55;;;;;;;3.03;2.30;;;19.90;65.20;;;;;;5030077;28;20100;-37
2023/07/23 04:35:22;;;;;;;3.38;2.17;;;;;;;;;;5013564;28;20064;-36
2023/07/23 04:37:49;;;;;;;4.70;2.30;;;19.90;82.10;;;;;;5026443;28;20124;-36
2023/07/23 04:40:15;;;;;;;4.35;2.15;;;19.90;81.30;;;;;;5030247;28;20132;-40
2023/07/23 04:42:42;;;;;;;2.63;2.00;;;20.10;71.70;;;;;;5029676;28;20059;-38
2023/07/23 04:45:09;;;;;;;2.67;2.15;;;19.40;81.90;;;;;;5030247;28;20486;-38
2023/07/23 04:47:39;;;;;;;2.88;2.20;;;;;;;;;;5030161;28;20128;-37
2023/07/23 04:50:08;;;;;;;4.15;2.25;;;19.30;81.90;;;;;;5030254;28;20128;-39
2023/07/23 04:52:35;;;;;;;2.97;2.20;;;;;;;;;;5011683;28;20057;-36
2023/07/23 04:55:02;;;;;;;3.28;2.30;;;20.20;81.90;;;;;;5010482;28;20049;-35
2023/07/23 04:57:29;;;;;;;2.92;1.98;;;21.00;82.30;;;;;;5010164;28;20084;-38
2023/07/23 04:59:56;;;;;;;3.13;2.20;;;19.80;82.10;;;;;;5010653;28;20053;-37
2023/07/23 05:02:23;;;;;;;3.28;2.03;;;;;;;;;;5009879;28;20455;-37
2023/07/23 05:04:50;;;;;;;2.97;2.15;;;20.50;82.90;;;;;;5010570;28;20406;-39
2023/07/23 05:07:18;;;;;;;2.83;1.88;;;20.50;65.40;;;;;;5011436;28;20133;-36
2023/07/23 05:09:45;;;;;;;3.25;2.13;;;;;;;;;;5009948;28;20124;-35
2023/07/23 05:12:12;;;;;;;3.22;2.20;;;20.10;81.90;;;;;;5015835;28;20048;-40
2023/07/23 05:14:38;;;;;;;3.03;2.10;;;20.00;82.30;;;;;;5020991;28;20089;-36
2023/07/23 05:17:05;;;;;;;2.38;2.00;;;19.60;71.30;;;;;;5019501;28;20042;-34
2023/07/23 05:19:32;;;;;;;3.00;2.10;;;19.80;82.50;;;;;;5017380;28;20128;-37
2023/07/23 05:21:59;;;;;;;2.88;2.08;;;19.20;81.80;;;;;;5020538;28;20632;-38
2023/07/23 05:24:27;;;;;;;3.03;2.20;;;19.90;72.00;;;;;;5018644;28;20132;-37
2023/07/23 05:26:53;;;;;;;3.08;2.17;;;19.90;69.90;;;;;;5018030;28;20473;-37
2023/07/23 05:29:20;;;;;;;3.15;2.20;;;20.80;82.20;;;;;;5019049;28;20124;-40
2023/07/23 05:31:47;;;;;;;3.90;1.92;;;19.70;79.80;;;;;;5019430;28;20133;-38
2023/07/23 05:34:14;;;;;;;3.38;2.20;;;20.10;65.70;;;;;;5011945;28;20097;-35
2023/07/23 05:36:41;;;;;;;2.60;2.10;;;20.30;82.80;;;;;;5016301;28;20409;-38
2023/07/23 05:39:08;;;;;;;3.13;2.20;;;;;;;;;;5029446;28;20113;-37
2023/07/23 05:41:37;;;;;;;2.90;2.30;;;19.90;82.00;;;;;;5024114;28;20054;-41
2023/07/23 05:44:03;;;;;;;3.15;2.00;;;19.80;81.60;;;;;;5009700;28;20052;-36
2023/07/23 05:46:30;;;;;;;3.15;2.20;;;20.20;77.10;;;;;;5009594;28;20141;-37
2023/07/23 05:48:57;;;;;;;2.72;2.05;;;20.50;81.90;;;;;;5009667;28;20132;-36
2023/07/23 05:51:23;;;;;;;2.80;2.15;;;19.90;81.90;;;;;;5009713;28;20137;-40
2023/07/23 05:53:50;;;;;;;4.13;2.45;;;20.30;70.20;;;;;;5009557;28;20052;-36
2023/07/23 05:56:17;;;;;;;2.95;1.95;;;20.10;82.10;;;;;;5009830;28;20133;-38
2023/07/23 05:58:45;;;;;;;3.08;2.20;;;19.30;81.30;;;;;;5010495;28;20490;-40
2023/07/23 06:01:12;;;;;;;2.60;2.25;;;20.20;68.70;;;;;;5009489;28;20153;-38
2023/07/23 06:03:39;;;;;;;4.15;2.20;;;;;;;;;;5009307;28;20045;-35
2023/07/23 06:06:05;;;;;;;2.90;2.05;;;20.90;82.00;;;;;;5011687;28;20056;-36
2023/07/23 06:08:32;;;;;;;2.90;2.28;;;19.80;81.50;;;;;;5019898;28;20164;-39
2023/07/23 06:10:59;;;;;;;2.70;2.10;;;19.80;68.20;;;;;;5016750;28;20060;-36
2023/07/23 06:13:25;;;;;;;3.20;2.40;;;19.70;81.90;;;;;;5008912;28;20050;-37
2023/07/23 06:15:54;;;;;;;2.95;2.25;;;19.90;82.10;;;;;;5010375;28;20056;-38
2023/07/23 06:18:21;;;;;;;3.00;2.05;;;;;;;;;;5009331;28;20414;-39
2023/07/23 06:20:47;;;;;;;4.28;2.40;;;20.50;82.70;;;;;;5009023;28;20441;-38
2023/07/23 06:23:14;;;;;;;2.53;1.90;;;20.20;81.70;;;;;;5022126;28;20128;-38
2023/07/23 06:25:41;;;;;;;2.58;2.08;;;20.00;81.80;;;;;;5028829;28;20429;-37
2023/07/23 06:28:08;;;;;;;2.40;2.05;;;;;;;;;;5029162;28;20132;-37
2023/07/23 06:30:35;;;;;;;3.05;2.45;;;;;;;;;;5030991;28;20133;-40
2023/07/23 06:33:03;;;;;;;2.50;2.20;;;20.20;80.50;;;;;;5018490;28;20132;-37
2023/07/23 06:35:30;;;;;;;3.90;2.10;;;19.30;82.30;;;;;;5022981;28;20133;-40
2023/07/23 06:37:57;;;;;;;3.40;2.20;;;20.00;82.70;;;;;;5028413;28;20057;-37
2023/07/23 06:40:24;;;;;;;3.53;2.20;;;;;;;;;;5023778;28;20049;-36
2023/07/23 06:42:50;;;;;;;3.22;2.40;;;20.20;81.90;;;;;;5031977;28;20140;-35
2023/07/23 06:45:17;;;;;;;2.50;2.22;;;18.80;81.00;;;;;;5031251;28;20140;-39
2023/07/23 06:47:44;;;;;;;4.75;2.20;;;20.10;72.80;;;;;;5021589;28;20125;-37
2023/07/23 06:50:12;;;;;;;3.03;2.40;;;20.00;82.20;;;;;;5021531;28;20132;-37
2023/07/23 06:52:39;;;;;;;4.03;2.00;;;19.80;81.80;;;;;;5029386;28;20055;-37
2023/07/23 06:55:06;;;;;;;5.55;2.35;;;20.90;82.80;;;;;;5032301;28;20049;-38
2023/07/23 06:57:33;;;;;;;4.82;2.60;;;19.70;67.30;;;;;;5031808;28;20056;-36
2023/07/23 06:59:59;;;;;;;2.58;2.08;;;20.30;82.30;;;;;;5032178;28;20466;-39
2023/07/23 07:02:26;;;;;;;3.70;2.63;;;;;;;;;;5031560;28;20136;-34
2023/07/23 07:04:53;;;;;;;3.10;2.22;;;19.70;82.30;;;;;;5031893;28;20048;-39
2023/07/23 07:07:21;;;;;;;3.20;2.47;;;20.30;75.40;;;;;;5024850;28;20564;-36
2023/07/23 07:09:48;;;;;;;3.47;2.22;;;19.80;81.90;;;;;;5032011;28;20052;-40
2023/07/23 07:12:15;;;;;;;3.67;2.47;;;20.90;80.10;;;;;;5031453;28;20124;-36
2023/07/23 07:14:41;;;;;;;3.58;2.40;;;21.10;82.70;;;;;;5031648;28;20052;-39
2023/07/23 07:17:08;;;;;;;4.35;2.53;;;19.10;81.60;;;;;;5031898;28;20133;-35
2023/07/23 07:19:35;;;;;;;5.82;2.17;;;19.70;72.90;;;;;;5031921;28;20140;-36
2023/07/23 07:22:02;;;;;;;3.67;2.30;;;20.10;75.50;;;;;;5029564;28;20125;-36
2023/07/23 07:24:30;;;;;;;4.00;2.38;;;19.70;82.10;;;;;;5011740;28;20495;-39
2023/07/23 07:26:56;;;;;;;4.68;2.30;;;20.90;82.70;;;;;;5025042;28;20045;-36
2023/07/23 07:29:23;;;;;;;2.92;2.13;;;;;;;;;;5029664;28;20053;-37
2023/07/23 07:31:50;;;;;;;4.15;2.28;;;19.70;82.60;;;;;;5020277;28;20128;-39
2023/07/23 07:34:17;;;;;;;3.67;2.38;;;;;;;;;;5030946;28;20133;-36
2023/07/23 07:36:44;;;;;;;5.35;2.13;;;19.70;82.20;;;;;;5024107;28;20455;-40
2023/07/23 07:39:11;;;;;;;3.13;2.28;;;;;;;;;;5031392;28;20143;-36
2023/07/23 07:41:39;;;;;;;3.25;2.30;;;20.00;65.90;;;;;;5017481;28;20053;-38
2023/07/23 07:44:06;;;;;;;3.17;2.40;;;18.80;81.80;;;;;;5011033;28;20125;-36
2023/07/23 07:46:33;;;;;;;2.50;2.20;;;19.60;82.30;;;;;;5011653;28;20240;-39
2023/07/23 07:49:00;;;;;;;3.67;2.30;;;;;;;;;;5018706;28;20056;-39
2023/07/23 07:51:27;;;;;;;3.28;2.30;;;19.70;82.70;;;;;;5011550;28;20069;-37
2023/07/23 07:53:54;;;;;;;4.13;2.55;;;;;;;;;;5011169;28;20136;-37
2023/07/23 07:56:21;;;;;;;3.20;2.38;;;19.80;82.40;;;;;;5016077;28;20129;-40
2023/07/23 07:58:50;;;;;;;4.20;2.28;;;21.00;79.20;;;;;;5023686;28;20472;-39
2023/07/23 08:01:17;;;;;;;4.88;2.72;;;19.90;83.30;;;;;;5024312;28;20049;-39
2023/07/23 08:03:44;;;;;;;4.72;2.45;;;19.90;69.90;;;;;;5028426;28;20557;-38
2023/07/23 08:06:11;;;;;;;4.10;2.53;;;19.90;83.40;;;;;;5022249;28;20056;-39
2023/07/23 08:08:38;;;;;;;2.95;2.60;;;;;;;;;;5011134;28;20574;-35
2023/07/23 08:11:07;;;;;;;3.47;2.60;;;19.80;82.90;;;;;;5024554;28;20479;-38
2023/07/23 08:13:36;;;;;;;3.13;2.60;;;20.00;66.10;;;;;;5030853;28;20049;-37
2023/07/23 08:16:04;;;;;;;3.10;2.63;;;20.10;75.10;;;;;;5011842;28;20050;-36
2023/07/23 08:18:32;;;;;;;5.15;2.80;;;20.30;82.90;;;;;;5011063;28;20129;-38
2023/07/23 08:20:59;;;;;;;3.60;2.60;;;20.00;66.10;;;;;;5011047;28;20133;-37
2023/07/23 08:23:26;;;;;;;2.60;2.22;;;20.10;83.10;;;;;;5024469;28;20081;-37
2023/07/23 08:25:54;;;;;;;3.60;2.35;;;20.00;66.10;;;;;;5030221;28;20493;-38
2023/07/23 08:28:22;;;;;;;3.58;2.65;;;20.90;70.50;;;;;;5024817;28;20483;-36
2023/07/23 08:30:49;;;;;;;4.03;2.58;;;20.20;83.30;;;;;;5010849;28;20061;-40
2023/07/23 08:33:17;;;;;;;4.03;2.70;;;20.40;83.40;;;;;;5010820;28;20142;-40
2023/07/23 08:35:44;;;;;;;4.40;2.83;;;20.10;73.10;;;;;;5018436;28;20124;-36
2023/07/23 08:38:12;;;;;;;3.38;2.58;;;20.60;66.60;;;;;;5029464;28;20052;-38
2023/07/23 08:40:43;;;;;;;3.83;2.85;;;20.80;84.20;;;;;;5030292;28;20046;-40
2023/07/23 08:43:27;;;;;;;4.00;2.70;;;20.00;74.20;;;;;;5029961;28;20132;-40
2023/07/23 08:46:16;;;;;;;3.38;2.63;;;19.90;68.60;;;;;;5014671;28;20046;-39
2023/07/23 08:49:11;;;;;;;4.30;3.03;;;19.50;82.70;;;;;;5017878;28;20135;-41
2023/07/23 08:51:43;;;;;;;4.68;2.88;;;20.00;73.10;;;;;;5030206;28;20136;-40
2023/07/23 08:54:10;;;;;;;4.25;2.70;;;;;;;;;;5029463;28;20494;-37
2023/07/23 08:56:37;;;;;;;6.68;3.28;;;21.00;83.40;;;;;;5029985;28;20136;-40
2023/07/23 08:59:05;;;;;;;8.13;2.65;;;20.00;73.30;;;;;;5021029;28;20064;-38
2023/07/23 09:01:33;;;;;;;11.55;3.35;;;20.00;66.40;;;;;;5013560;28;20125;-37
2023/07/23 09:04:00;;;;;;;3.63;2.45;;;;;;;;;;5020037;28;20042;-37
2023/07/23 09:06:30;;;;;;;5.43;3.10;;;19.70;83.70;;;;;;5009237;28;20058;-40
2023/07/23 09:09:01;;;;;;;4.72;2.80;;;19.80;74.50;;;;;;5009841;28;20498;-38
2023/07/23 09:11:29;;;;;;;3.03;2.50;;;20.00;83.50;;;;;;5010380;28;20559;-41
2023/07/23 09:13:58;;;;;;;4.45;2.80;;;20.20;83.20;;;;;;5009784;28;20558;-41
2023/07/23 09:16:24;;;;;;;3.10;2.58;;;20.70;72.00;;;;;;5010352;28;20132;-39
2023/07/23 09:18:51;;;;;;;3.17;2.42;;;20.20;83.20;;;;;;5010266;28;20133;-41
2023/07/23 09:21:23;;;;;;;3.65;2.72;;;20.20;84.10;;;;;;5009995;28;20403;-41
2023/07/23 09:23:52;;;;;;;3.92;2.80;;;19.90;83.40;;;;;;5009719;28;20137;-32
2023/07/23 09:26:20;;;;;;;5.22;2.80;;;19.90;76.60;;;;;;5010128;28;20141;-34
2023/07/23 09:28:47;;;;;;;3.85;2.63;;;21.00;81.80;;;;;;5009914;28;20129;-32
2023/07/23 09:31:14;;;;;;;4.25;3.10;;;20.10;83.70;;;;;;5009511;28;20471;-38
2023/07/23 09:33:40;;;;;;;3.10;2.70;;;20.00;84.00;;;;;;5009415;28;20132;-40
2023/07/23 09:36:07;;;;;;;6.57;2.60;;;19.80;75.10;;;;;;5075768;27;20567;-37
2023/07/23 09:38:34;;;;;;;3.95;2.78;;;19.80;83.00;;;;;;5084938;27;20060;-37
2023/07/23 09:41:02;;;;;;;3.45;2.70;;;20.30;83.90;;;;;;5062330;27;20039;-32
2023/07/23 09:43:29;;;;;;;3.15;2.60;;;20.40;84.40;;;;;;5133386;27;20129;-36
2023/07/23 09:45:55;;;;;;;3.00;2.50;;;21.10;75.30;;;;;;5133034;27;20559;-40
2023/07/23 09:48:22;;;;;;;3.63;2.47;;;20.50;84.40;;;;;;5133341;27;20130;-40
2023/07/23 09:50:50;;;;;;;3.17;2.60;;;20.20;84.20;;;;;;5083280;27;20446;-39
2023/07/23 09:53:17;;;;;;;3.47;2.60;;;;;;;;;;5028879;28;20132;-40
2023/07/23 09:55:44;;;;;;;3.63;2.58;;;20.20;83.40;;;;;;5029488;28;20133;-39
2023/07/23 09:58:12;;;;;;;3.25;2.47;;;19.80;83.20;;;;;;5029034;28;20517;-33
2023/07/23 10:00:39;;;;;;;3.35;2.55;;;20.40;72.00;;;;;;5029512;28;20431;-31
2023/07/23 10:03:06;;;;;;;5.03;2.80;;;;;;;;;;5028810;28;20132;-37
2023/07/23 10:05:33;;;;;;;3.03;2.53;;;20.30;83.90;;;;;;5029011;28;20133;-31
2023/07/23 10:08:00;;;;;;;3.72;2.92;;;;;;;;;;5031227;28;20049;-32
2023/07/23 10:10:26;;;;;;;3.58;2.78;;;19.70;83.10;;;;;;5029290;28;20057;-32
2023/07/23 10:12:53;;;;;;;3.63;2.63;;;20.00;83.80;;;;;;5028949;28;20072;-31
2023/07/23 10:15:21;;;;;;;2.78;2.30;;;20.00;66.90;;;;;;5029053;28;20056;-33
2023/07/23 10:17:50;;;;;;;3.13;2.35;;;20.00;66.90;;;;;;5029034;28;20128;-35
2023/07/23 10:20:17;;;;;;;3.35;2.88;;;20.00;73.20;;;;;;5028840;28;20132;-39
2023/07/23 10:22:45;;;;;;;3.97;2.50;;;19.60;83.30;;;;;;5011241;28;20058;-39
2023/07/23 10:25:30;;;;;;;4.07;2.72;;;20.80;84.00;;;;;;5010293;28;20046;-39
2023/07/23 10:27:58;;;;;;;4.50;2.55;;;20.50;81.70;;;;;;5010189;28;20077;-31
2023/07/23 10:30:27;;;;;;;6.95;2.67;;;20.00;80.20;;;;;;5008993;28;20123;-31
2023/07/23 10:33:28;;;;;;;3.35;2.70;;;20.90;83.80;;;;;;5008933;28;20201;-40
2023/07/23 10:35:59;;;;;;;3.75;2.55;;;19.10;67.10;;;;;;5009075;28;20152;-37
2023/07/23 10:38:27;;;;;;;3.65;2.45;;;19.30;84.00;;;;;;5027819;28;20049;-41
2023/07/23 10:40:54;;;;;;;2.50;2.20;;;19.10;83.00;;;;;;5028403;28;20057;-41
2023/07/23 10:43:21;;;;;;;3.00;2.50;;;;;;;;;;5027793;28;20132;-37
2023/07/23 10:45:50;;;;;;;3.10;2.42;;;20.20;76.30;;;;;;5028820;28;20046;-40
2023/07/23 10:48:17;;;;;;;3.92;2.15;;;20.10;83.60;;;;;;5028825;28;20076;-32
2023/07/23 10:50:59;;;;;;;2.80;2.40;;;20.00;66.80;;;;;;5028359;28;20565;-33
2023/07/23 10:53:26;;;;;;;2.80;2.20;;;19.90;83.30;;;;;;5028240;28;20056;-30
2023/07/23 10:55:53;;;;;;;3.30;2.30;;;19.90;83.30;;;;;;5028812;28;20129;-30
2023/07/23 10:58:20;;;;;;;3.00;2.63;;;;;;;;;;5028414;28;20054;-33
2023/07/23 11:00:52;;;;;;;3.35;2.40;;;19.40;83.00;;;;;;5008675;28;20129;-31
2023/07/23 11:03:20;;;;;;;3.15;2.47;;;19.70;83.10;;;;;;5008554;28;20129;-31
2023/07/23 11:05:46;;;;;;;3.45;2.50;;;19.90;84.10;;;;;;5008862;28;20133;-31
2023/07/23 11:08:17;;;;;;;5.30;2.50;;;20.00;83.20;;;;;;5008010;28;20491;-32
2023/07/23 11:10:48;;;;;;;2.53;2.28;;;19.60;67.20;;;;;;5008328;28;20076;-33
2023/07/23 11:13:15;;;;;;;3.30;2.60;;;19.80;83.90;;;;;;5008007;28;20084;-34
2023/07/23 11:15:41;;;;;;;3.05;2.50;;;20.20;84.20;;;;;;5008634;28;20080;-33
2023/07/23 11:18:10;;;;;;;2.88;2.28;;;20.00;73.50;;;;;;5011439;28;20121;-34
2023/07/23 11:20:36;;;;;;;2.80;2.33;;;19.90;84.00;;;;;;5011519;28;20474;-32
2023/07/23 11:23:06;;;;;;;4.63;2.60;;;19.90;66.60;;;;;;5011584;28;20121;-33
2023/07/23 11:25:33;;;;;;;2.88;2.30;;;19.80;83.60;;;;;;5011454;28;20060;-32
2023/07/23 11:28:00;;;;;;;2.67;2.22;;;19.60;83.10;;;;;;5011368;28;20049;-33
2023/07/23 11:30:26;;;;;;;2.60;2.20;;;20.10;71.70;;;;;;5011769;28;20148;-32
2023/07/23 11:32:53;;;;;;;5.05;2.55;;;19.10;83.70;;;;;;5011642;28;20526;-31
2023/07/23 11:35:21;;;;;;;3.13;2.40;;;19.60;83.20;;;;;;5011454;28;20046;-32
2023/07/23 11:37:49;;;;;;;2.20;2.00;;;19.80;83.30;;;;;;5027243;28;20528;-31
2023/07/23 11:40:20;;;;;;;3.55;2.75;;;19.90;66.70;;;;;;5020159;28;20056;-36
2023/07/23 11:42:47;;;;;;;2.53;2.20;;;19.40;79.00;;;;;;5011193;28;20498;-31
2023/07/23 11:45:14;;;;;;;2.90;2.30;;;19.60;83.30;;;;;;5011747;28;20129;-31
2023/07/23 11:47:48;;;;;;;3.45;2.50;;;20.40;68.40;;;;;;5027170;28;20132;-33
2023/07/23 11:50:15;;;;;;;2.70;2.30;;;20.40;84.50;;;;;;5031610;28;20053;-30
2023/07/23 11:52:43;;;;;;;3.50;2.80;;;19.40;75.30;;;;;;5031030;28;20045;-32
2023/07/23 11:55:19;;;;;;;2.75;2.33;;;20.00;82.10;;;;;;5015510;28;20050;-32
2023/07/23 11:57:46;;;;;;;3.45;2.60;;;;;;;;;;5010661;28;20053;-31
2023/07/23 12:00:13;;;;;;;4.70;2.70;;;19.10;83.40;;;;;;5011372;28;20046;-32
2023/07/23 12:02:40;;;;;;;3.67;2.47;;;20.50;83.70;;;;;;5011172;28;20054;-30
2023/07/23 12:05:09;;;;;;;2.95;2.30;;;19.90;66.90;;;;;;5016557;28;20057;-35
2023/07/23 12:07:36;;;;;;;2.83;2.28;;;19.90;66.90;;;;;;5030040;28;20057;-35
2023/07/23 12:10:05;;;;;;;3.22;2.90;;;19.90;83.60;;;;;;5030199;28;20132;-32
2023/07/23 12:12:33;;;;;;;4.78;2.88;;;19.40;72.70;;;;;;5030351;28;20056;-34
2023/07/23 12:15:04;;;;;;;3.92;2.83;;;19.70;77.10;;;;;;5030658;28;20128;-32
2023/07/23 12:17:31;;;;;;;3.35;2.60;;;20.20;84.70;;;;;;5030802;28;20129;-31
2023/07/23 12:19:57;;;;;;;5.82;2.55;;;20.50;74.90;;;;;;5030822;28;20586;-31
2023/07/23 12:22:25;;;;;;;3.38;2.70;;;20.10;73.70;;;;;;5027466;28;20128;-32
2023/07/23 12:24:51;;;;;;;3.50;2.60;;;19.60;84.40;;;;;;5019353;28;20061;-32
2023/07/23 12:27:19;;;;;;;4.07;2.60;;;19.90;67.20;;;;;;5012692;28;20052;-34
2023/07/23 12:29:48;;;;;;;2.80;2.50;;;;;;;;;;5029883;28;20128;-34
2023/07/23 12:32:16;;;;;;;3.42;2.95;;;20.00;84.70;;;;;;5030037;28;20046;-32
2023/07/23 12:34:43;;;;;;;4.20;2.65;;;20.10;72.80;;;;;;5030413;28;20060;-31
2023/07/23 12:37:10;;;;;;;3.72;2.55;;;;;;;;;;5028928;28;20045;-36
2023/07/23 12:39:37;;;;;;;3.10;2.60;;;20.80;84.60;;;;;;5030247;28;20132;-31
2023/07/23 12:42:04;;;;;;;3.28;2.42;;;19.90;67.30;;;;;;5029975;28;20588;-34
2023/07/23 12:44:32;;;;;;;3.40;2.40;;;19.80;84.60;;;;;;5020797;28;20057;-31
2023/07/23 12:46:59;;;;;;;2.80;2.38;;;19.90;67.30;;;;;;5010797;28;20129;-31
2023/07/23 12:49:26;;;;;;;3.20;2.55;;;19.60;72.00;;;;;;5010725;28;20137;-31
2023/07/23 12:51:53;;;;;;;3.60;2.40;;;19.40;75.30;;;;;;5010379;28;20569;-31
2023/07/23 12:54:21;;;;;;;2.83;2.33;;;;;;;;;;5010108;28;20053;-35
2023/07/23 12:56:48;;;;;;;2.92;2.42;;;19.20;83.50;;;;;;5010409;28;20128;-31
2023/07/23 12:59:14;;;;;;;3.35;2.40;;;19.70;84.10;;;;;;5010519;28;20049;-31
2023/07/23 13:01:43;;;;;;;3.53;2.55;;;19.80;70.80;;;;;;5014424;28;20132;-32
2023/07/23 13:04:09;;;;;;;3.42;2.30;;;19.50;77.80;;;;;;5010131;28;20137;-31
2023/07/23 13:06:36;;;;;;;3.63;2.42;;;19.90;84.20;;;;;;5010217;28;20072;-31